• Join FlightAware (Why Join?)
  • Login
  • US Flag 
01:50AM EDT


 

Airport Tracker/Info


-or-


 

Live Flight TrackerFlight Track Log ✈ JUS196 ✈ 24-May-2013 ✈ CYHM - KYIP

Flight Track Log - Related Links

Times and Time Zones

All times are in EDT time to prevent confusion due to time zone crossing. See the JUS196 flight status page for this flight to view local times or setup timezone preferences in your user account.

Time Position Orientation Groundspeed Altitude Reporting Facility
EDT Latitude Longitude Course Direction KTS MPH feet Rate Location/Type
04:41AM 43.1667 -79.9500 257° West 170 196 3,100  Level Toronto Center
04:42AM 43.1667 -80.0500 270° West 220 253 4,700 2,760 Climbing Toronto Center
04:43AM 43.1500 -80.1333 255° West 260 299 8,700 3,720 Climbing Toronto Center
04:44AM 43.1333 -80.2667 260° West 300 345 12,200 2,640 Climbing Toronto Center
04:45AM 43.1650 -79.9869 258° West  Level FlightAware Approximate
04:45AM 43.1167 -80.3833 259° West 330 380 14,000  Level Toronto Center
04:46AM 43.1432 -80.1514 262° West  Level FlightAware Approximate
04:46AM 43.1000 -80.5167 260° West 350 403 14,100  Level Toronto Center
04:47AM 43.1223 -80.3162 257° West  Level FlightAware Approximate
04:47AM 43.1000 -80.6333 270° West 350 403 14,100  Level Toronto Center
04:48AM 43.0667 -80.7667 251° West 360 414 14,100  Level Toronto Center
04:49AM 43.0333 -80.9167 253° West 360 414 14,100  Level Toronto Center
04:50AM 43.0333 -81.0500 270° West 360 414 14,100 -60 Level Toronto Center
04:51AM 43.0000 -81.1833 251° West 360 414 14,000 -60 Descending Toronto Center
04:52AM 42.9833 -81.3167 260° West 370 426 14,000  Level Toronto Center
04:53AM 42.9333 -81.4333 240° Southwest 370 426 14,000  Level Toronto Center
04:54AM 42.8833 -81.5667 243° Southwest 370 426 14,000  Level Toronto Center
04:55AM 42.8569 -81.7019 255° West 365 420 14,000  Level Cleveland Center
04:56AM 42.8161 -81.8172 244° Southwest 358 412 14,000  Level Cleveland Center
04:57AM 42.7794 -81.9381 248° West 358 412 14,000  Level Cleveland Center
04:58AM 42.7406 -82.0561 246° West 353 406 14,000  Level Cleveland Center
04:59AM 42.7014 -82.1736 246° West 353 406 14,000  Level Cleveland Center
05:00AM 42.6642 -82.2914 247° West 353 406 14,100  Climbing Cleveland Center
05:01AM 42.6228 -82.4058 244° Southwest 353 406 14,100  Level Cleveland Center
05:02AM 42.5856 -82.5261 247° West 353 406 14,100 -1,140 Level Cleveland Center
05:04AM 42.5682 -82.6796 242° Southwest  Level FlightAware Approximate
05:09AM 42.3489 -83.2156 246° West 281 323 5,400  Level Cleveland Center
05:11AM 42.2333 -83.5167 246° West  Level FlightAware Approximate
05:11AM 42.3106 -83.3319 246° West 231 266 3,800  Level Cleveland Center
05:12AM 42.2393 -83.5310 246° West  Level Estimated
05:12AM 42.2861 -83.4011 244° Southwest 197 227 3,100  Level Cleveland Center
05:13AM 42.2393 -83.5310 246° West  Level Estimated
05:13AM 42.2800 -83.4711 263° West 164 189 3,000  Level Cleveland Center
05:14AM 42.2393 -83.5310 246° West  Level Estimated
05:14AM 42.2722 -83.5381 261° West 199 229 2,300  Level Cleveland Center
05:15AM 42.2539 -83.5989 248° West 170 196 2,300  Level Cleveland Center
05:16AM 42.2181 -83.6083 191° South 161 185 2,300  Level Cleveland Center
05:18AM 42.2393 -83.5310 246° West  Level Estimated